Time;durP1;ratioP1;P1;durP2;ratioP2;P2;SDS_P1;SDS_P2;PMS_P1;PMS_P2;Temp;Humidity;BMP_temperature;BMP_pressure;BME280_temperature;BME280_humidity;BME280_pressure;Samples;Min_cycle;Max_cycle;Signal;HPM_P1;HPM_P2
2021/03/06 00:01:08;;;;;;;13.18;8.25;;;;;;;-1.33;72.11;96913.19;5024921;28;20050;-50
2021/03/06 00:03:35;;;;;;;14.35;9.02;;;;;;;-1.63;71.98;96892.03;5022578;28;20112;-52
2021/03/06 00:06:01;;;;;;;12.60;8.88;;;;;;;-1.30;72.55;96917.19;5032099;28;20053;-46
2021/03/06 00:08:28;;;;;;;13.23;8.73;;;;;;;-1.28;71.48;96907.16;5038598;28;20060;-51
2021/03/06 00:10:55;;;;;;;11.85;8.68;;;;;;;-1.65;71.85;96881.69;5042126;28;20509;-47
2021/03/06 00:13:24;;;;;;;14.88;8.43;;;;;;;-1.26;71.14;96928.97;5040815;28;20108;-51
2021/03/06 00:15:53;;;;;;;11.48;7.60;;;;;;;-1.19;69.53;96927.81;5033643;28;20522;-49
2021/03/06 00:18:19;;;;;;;12.07;7.68;;;;;;;-1.24;68.84;96893.16;5027532;28;20046;-52
2021/03/06 00:20:46;;;;;;;15.80;9.93;;;;;;;-1.37;71.77;96909.34;5012909;28;20088;-49
2021/03/06 00:23:16;;;;;;;13.57;8.57;;;;;;;-1.61;72.25;96905.09;5015708;28;20056;-51
2021/03/06 00:25:43;;;;;;;12.68;8.93;;;;;;;-1.52;73.29;96914.34;5024033;28;20056;-49
2021/03/06 00:28:10;;;;;;;12.63;8.88;;;;;;;-0.98;70.46;96917.59;5041902;28;20061;-47
2021/03/06 00:30:36;;;;;;;12.80;8.75;;;;;;;-1.78;72.22;96884.56;5029127;28;20442;-51
2021/03/06 00:33:03;;;;;;;13.35;8.35;;;;;;;-1.50;71.28;96886.50;5020448;28;20100;-47
2021/03/06 00:35:31;;;;;;;13.07;8.18;;;;;;;-1.15;71.29;96922.84;5021410;28;20053;-53
2021/03/06 00:37:58;;;;;;;12.82;7.72;;;;;;;-1.41;70.33;96863.88;5021240;28;20057;-47
2021/03/06 00:40:24;;;;;;;14.30;8.98;;;;;;;-1.05;70.87;96954.13;5021030;28;20414;-48
2021/03/06 00:42:51;;;;;;;12.52;8.55;;;;;;;-0.90;71.44;96911.94;5021482;28;20056;-47
2021/03/06 00:45:18;;;;;;;12.05;7.75;;;;;;;-0.91;70.26;96914.81;5037500;28;20113;-50
2021/03/06 00:47:45;;;;;;;15.50;8.93;;;;;;;-1.30;71.18;96888.81;5021324;28;20085;-48
2021/03/06 00:50:25;;;;;;;12.80;8.95;;;;;;;-0.89;70.75;96916.22;5020827;28;20046;-47
2021/03/06 00:52:52;;;;;;;13.25;8.00;;;;;;;-0.57;68.45;96918.44;5020929;28;20515;-50
2021/03/06 00:55:21;;;;;;;11.20;8.10;;;;;;;-0.40;66.79;96895.34;5020754;28;20038;-50
2021/03/06 00:57:48;;;;;;;11.18;8.27;;;;;;;-0.93;69.04;96893.81;5034586;28;20128;-48
2021/03/06 01:00:16;;;;;;;12.65;8.20;;;;;;;-0.61;68.03;96898.69;5019057;28;20057;-49
2021/03/06 01:02:43;;;;;;;12.88;8.30;;;;;;;-0.86;69.39;96891.81;5019783;28;20076;-50
2021/03/06 01:05:11;;;;;;;11.77;7.70;;;;;;;-0.92;68.64;96916.69;5045951;23;20117;-46
2021/03/06 01:07:37;;;;;;;13.60;8.43;;;;;;;-0.81;69.97;96918.50;5051856;28;20528;-47
2021/03/06 01:10:08;;;;;;;10.57;7.07;;;;;;;-0.65;69.23;96924.09;5046417;28;20045;-45
2021/03/06 01:12:34;;;;;;;12.98;7.85;;;;;;;-0.64;68.77;96925.75;5030137;28;20132;-45
2021/03/06 01:15:01;;;;;;;11.40;7.38;;;;;;;-0.79;67.92;96919.06;5031846;28;20182;-45
2021/03/06 01:17:28;;;;;;;10.40;7.57;;;;;;;-0.92;69.02;96907.91;5031474;28;20057;-44
2021/03/06 01:19:55;;;;;;;10.60;7.28;;;;;;;-0.81;68.44;96913.19;5031822;28;20057;-44
2021/03/06 01:22:21;;;;;;;10.98;6.93;;;;;;;-0.88;68.98;96907.19;5030949;28;20049;-46
2021/03/06 01:24:48;;;;;;;12.50;6.65;;;;;;;-0.93;69.00;96900.97;5046779;28;20045;-47
2021/03/06 01:27:14;;;;;;;10.73;6.97;;;;;;;-0.79;68.50;96895.16;5031694;28;20049;-45
2021/03/06 01:29:40;;;;;;;10.32;6.68;;;;;;;-0.28;65.76;96896.09;5031118;28;20090;-46
2021/03/06 01:32:07;;;;;;;10.07;6.80;;;;;;;-0.65;67.35;96895.69;5030867;28;20088;-45
2021/03/06 01:34:34;;;;;;;12.77;7.47;;;;;;;-1.36;69.54;96886.28;5031468;28;20140;-45
2021/03/06 01:37:01;;;;;;;11.48;6.70;;;;;;;-1.09;68.02;96894.53;5030402;28;20073;-45
2021/03/06 01:39:27;;;;;;;11.50;7.53;;;;;;;-0.69;67.30;96886.56;5031111;28;20053;-45
2021/03/06 01:41:54;;;;;;;11.50;6.97;;;;;;;-0.74;68.50;96899.78;5029672;28;20049;-45
2021/03/06 01:44:20;;;;;;;10.68;6.80;;;;;;;-0.69;68.09;96891.06;5030206;28;20064;-47
2021/03/06 01:46:47;;;;;;;10.68;7.50;;;;;;;-1.02;67.96;96888.06;5031156;28;20053;-47
2021/03/06 01:49:13;;;;;;;12.90;7.65;;;;;;;-0.60;68.33;96881.69;5031372;28;20729;-42
2021/03/06 01:51:40;;;;;;;12.65;6.95;;;;;;;-0.73;66.90;96875.59;5030120;28;20057;-45
2021/03/06 01:54:10;;;;;;;13.20;7.57;;;;;;;-0.66;68.60;96882.63;5031050;28;20498;-43
2021/03/06 01:56:36;;;;;;;10.95;7.43;;;;;;;-0.86;69.01;96883.06;5029735;28;20045;-48
2021/03/06 01:59:03;;;;;;;9.93;6.78;;;;;;;-1.15;69.22;96877.69;5031068;28;20140;-44
2021/03/06 02:01:30;;;;;;;11.00;7.47;;;;;;;-0.62;67.77;96884.56;5036860;28;20110;-44
2021/03/06 02:03:58;;;;;;;12.25;7.38;;;;;;;-0.83;68.86;96885.25;5050909;28;20053;-45
2021/03/06 02:06:25;;;;;;;11.40;7.75;;;;;;;-0.44;68.48;96880.91;5031340;28;20470;-44
2021/03/06 02:08:53;;;;;;;12.60;7.57;;;;;;;-0.99;69.17;96881.47;5030951;28;20443;-45
2021/03/06 02:11:37;;;;;;;12.77;7.57;;;;;;;-1.07;70.23;96865.88;5030551;28;20547;-46
2021/03/06 02:14:41;;;;;;;13.18;7.65;;;;;;;-1.44;70.79;96882.91;5031689;28;20141;-46
2021/03/06 02:17:17;;;;;;;11.63;7.28;;;;;;;-1.55;72.27;96881.09;5030953;28;20108;-44
2021/03/06 02:20:05;;;;;;;12.55;7.75;;;;;;;-1.49;72.06;96882.03;5031061;28;20054;-45
2021/03/06 02:23:01;;;;;;;12.20;7.95;;;;;;;-1.46;72.50;96878.91;5030034;28;20133;-43
2021/03/06 02:26:04;;;;;;;14.73;8.32;;;;;;;-1.44;71.66;96890.88;5030577;28;20063;-44
2021/03/06 02:29:09;;;;;;;12.18;7.95;;;;;;;-1.70;73.25;96883.41;5030851;28;20503;-44
2021/03/06 02:31:39;;;;;;;11.75;7.53;;;;;;;-1.53;73.35;96879.00;5029958;28;20055;-48
2021/03/06 02:34:15;;;;;;;12.75;7.50;;;;;;;-1.63;73.14;96870.00;5030725;28;20084;-45
2021/03/06 02:36:48;;;;;;;13.02;7.75;;;;;;;-1.71;72.82;96864.03;5030889;28;20412;-44
2021/03/06 02:39:17;;;;;;;12.93;6.88;;;;;;;-1.65;73.08;96875.56;5030421;28;20061;-45
2021/03/06 02:41:45;;;;;;;13.65;8.30;;;;;;;-1.60;73.30;96872.22;5029757;28;20049;-45
2021/03/06 02:44:13;;;;;;;13.73;8.40;;;;;;;-1.32;71.80;96874.16;5030334;28;20092;-44
2021/03/06 02:46:42;;;;;;;13.68;8.40;;;;;;;-1.06;71.56;96868.31;5030471;28;20503;-44
2021/03/06 02:49:08;;;;;;;11.80;8.18;;;;;;;-1.23;70.74;96868.25;5032017;28;20049;-43
2021/03/06 02:51:40;;;;;;;12.32;8.00;;;;;;;-1.42;71.62;96867.59;5048554;28;20056;-45
2021/03/06 02:54:08;;;;;;;13.35;7.55;;;;;;;-1.29;70.66;96868.38;5054033;28;20506;-43
2021/03/06 02:56:36;;;;;;;12.70;7.75;;;;;;;-1.14;70.98;96874.00;5054538;28;20041;-44
2021/03/06 02:59:14;;;;;;;11.07;7.72;;;;;;;-1.69;72.93;96869.91;5033977;28;20061;-46
2021/03/06 03:01:59;;;;;;;11.50;7.95;;;;;;;-1.44;72.38;96877.63;5033907;28;20127;-45
2021/03/06 03:04:58;;;;;;;12.70;8.00;;;;;;;-1.55;73.37;96875.78;5037355;28;20049;-43
2021/03/06 03:07:35;;;;;;;14.95;8.88;;;;;;;-1.73;74.24;96884.66;5054155;28;20060;-46
2021/03/06 03:10:09;;;;;;;13.43;8.18;;;;;;;-1.56;72.96;96882.16;5040469;28;20057;-46
2021/03/06 03:12:40;;;;;;;13.93;7.97;;;;;;;-1.94;75.20;96877.28;5033501;28;20056;-45
2021/03/06 03:15:18;;;;;;;14.80;8.18;;;;;;;-1.86;75.05;96889.38;5034487;28;20086;-46
2021/03/06 03:17:52;;;;;;;;;;;;;;;-1.29;71.71;96884.31;5034550;28;20041;-44
2021/03/06 03:20:36;;;;;;;13.15;7.63;;;;;;;-1.64;74.02;96893.09;5033761;28;20288;-46
2021/03/06 03:23:26;;;;;;;13.13;7.75;;;;;;;-1.28;71.85;96884.06;5034266;28;20152;-44
2021/03/06 03:26:05;;;;;;;13.50;8.60;;;;;;;-1.45;73.47;96886.63;5033813;28;20037;-41
2021/03/06 03:28:33;;;;;;;13.50;8.52;;;;;;;-1.69;73.78;96883.19;5034135;28;20121;-41
2021/03/06 03:31:01;;;;;;;13.02;7.60;;;;;;;-2.01;75.07;96888.00;5032903;28;20120;-42
2021/03/06 03:33:31;;;;;;;13.48;8.13;;;;;;;-2.02;75.35;96880.25;5033948;28;20573;-45
2021/03/06 03:35:59;;;;;;;15.00;8.75;;;;;;;-1.94;75.25;96877.28;5033278;28;20049;-44
2021/03/06 03:38:26;;;;;;;13.00;8.27;;;;;;;-1.90;74.98;96870.47;5033102;28;20080;-45
2021/03/06 03:40:54;;;;;;;14.50;8.80;;;;;;;-1.44;73.12;96879.47;5032528;28;20096;-47
2021/03/06 03:43:22;;;;;;;13.32;8.65;;;;;;;-1.63;73.65;96862.06;5033508;28;20060;-46
2021/03/06 03:45:51;;;;;;;11.77;8.15;;;;;;;-1.98;74.79;96870.81;5033050;28;20083;-47
2021/03/06 03:48:19;;;;;;;11.85;8.13;;;;;;;-1.62;73.99;96874.31;5033092;28;20478;-45
2021/03/06 03:50:46;;;;;;;13.73;8.07;;;;;;;-1.74;74.31;96879.59;5032550;28;20061;-45
2021/03/06 03:53:14;;;;;;;13.15;8.55;;;;;;;-1.67;74.45;96873.13;5033184;28;20059;-50
2021/03/06 03:55:41;;;;;;;12.70;8.05;;;;;;;-1.93;74.91;96862.97;5032952;28;20080;-48
2021/03/06 03:58:11;;;;;;;13.27;8.50;;;;;;;-1.62;73.88;96874.31;5033186;28;20155;-48
2021/03/06 04:00:37;;;;;;;15.32;8.60;;;;;;;-1.67;74.16;96867.81;5031784;28;20414;-46
2021/03/06 04:03:08;;;;;;;13.18;8.65;;;;;;;-2.03;75.58;96878.66;5032661;28;20060;-47
2021/03/06 04:05:41;;;;;;;12.80;7.97;;;;;;;-1.66;73.61;96874.75;5045449;28;20106;-46
2021/03/06 04:08:07;;;;;;;14.63;8.63;;;;;;;-2.10;75.45;96868.16;5042107;28;20170;-46
2021/03/06 04:10:34;;;;;;;15.80;9.02;;;;;;;-2.04;75.69;96887.66;5030756;28;20046;-46
2021/03/06 04:13:00;;;;;;;14.60;8.27;;;;;;;-2.10;75.82;96878.75;5032574;28;20128;-46
2021/03/06 04:15:28;;;;;;;15.00;9.38;;;;;;;-1.91;76.48;96876.81;5032536;28;20045;-47
2021/03/06 04:17:54;;;;;;;14.70;9.15;;;;;;;-1.78;74.16;96881.09;5032236;28;20049;-48
2021/03/06 04:20:29;;;;;;;13.50;9.15;;;;;;;-1.51;73.22;96892.84;5032406;28;20127;-50
2021/03/06 04:22:58;;;;;;;14.18;8.73;;;;;;;-1.75;74.47;96891.25;5032028;28;20172;-48
2021/03/06 04:25:24;;;;;;;15.90;9.02;;;;;;;-1.47;73.01;96890.53;5032192;28;20088;-46
2021/03/06 04:27:56;;;;;;;16.33;9.30;;;;;;;-1.79;73.88;96890.88;5032402;28;20050;-48
2021/03/06 04:30:23;;;;;;;15.30;8.88;;;;;;;-1.81;74.60;96890.31;5031818;28;20049;-45
2021/03/06 04:32:50;;;;;;;13.65;8.98;;;;;;;-1.70;74.21;96889.50;5031587;28;20124;-45
2021/03/06 04:35:16;;;;;;;14.30;8.77;;;;;;;-2.28;76.85;96897.38;5032321;28;20050;-49
2021/03/06 04:37:43;;;;;;;14.90;9.07;;;;;;;-2.36;76.83;96904.63;5032319;28;20504;-50
2021/03/06 04:40:12;;;;;;;13.65;8.98;;;;;;;-2.39;77.41;96901.63;5032013;28;20345;-47
2021/03/06 04:42:39;;;;;;;14.52;9.00;;;;;;;-2.28;77.39;96911.44;5031516;28;20140;-46
2021/03/06 04:45:07;;;;;;;12.60;8.85;;;;;;;-2.10;75.79;96899.16;5032036;28;20577;-46
2021/03/06 04:47:33;;;;;;;13.20;8.65;;;;;;;-2.25;76.28;96903.03;5031926;28;20499;-46
2021/03/06 04:50:00;;;;;;;15.50;9.50;;;;;;;-2.33;77.25;96900.72;5032199;28;20422;-44
2021/03/06 04:52:28;;;;;;;17.65;9.35;;;;;;;-2.08;76.78;96900.56;5031306;28;20140;-45
2021/03/06 04:54:54;;;;;;;14.55;9.25;;;;;;;-1.77;75.85;96904.75;5031704;28;20159;-45
2021/03/06 04:57:21;;;;;;;14.27;9.13;;;;;;;-1.46;73.10;96916.06;5031498;28;20525;-46
2021/03/06 04:59:48;;;;;;;16.42;9.55;;;;;;;-1.69;74.24;96906.22;5031672;28;20053;-46
2021/03/06 05:02:14;;;;;;;16.92;8.52;;;;;;;-2.00;75.25;96899.41;5040254;28;20068;-44
2021/03/06 05:04:42;;;;;;;13.13;8.63;;;;;;;-1.93;74.69;96911.53;5038551;28;20071;-41
2021/03/06 05:07:08;;;;;;;13.30;8.57;;;;;;;-1.58;73.26;96907.28;5051312;28;20473;-40
2021/03/06 05:09:34;;;;;;;14.18;8.48;;;;;;;-1.47;71.80;96906.47;5032197;28;20059;-46
2021/03/06 05:12:01;;;;;;;17.80;8.52;;;;;;;-1.70;73.18;96913.38;5029878;28;20128;-45
2021/03/06 05:14:27;;;;;;;15.13;8.63;;;;;;;-1.44;72.08;96913.97;5031756;28;20128;-42
2021/03/06 05:16:53;;;;;;;14.07;8.82;;;;;;;-2.04;74.88;96914.97;5031086;28;20065;-42
2021/03/06 05:19:20;;;;;;;12.38;8.30;;;;;;;-1.86;73.53;96910.59;5031619;28;20486;-41
2021/03/06 05:21:46;;;;;;;13.38;7.97;;;;;;;-1.93;73.46;96914.16;5031016;28;20111;-42
2021/03/06 05:24:13;;;;;;;17.00;7.57;;;;;;;-2.58;75.94;96914.09;5031318;28;20061;-40
2021/03/06 05:26:39;;;;;;;12.82;7.68;;;;;;;-2.46;76.38;96916.81;5031236;28;20538;-45
2021/03/06 05:29:05;;;;;;;13.27;7.78;;;;;;;-2.18;75.59;96919.69;5029950;28;20517;-42
2021/03/06 05:31:32;;;;;;;13.63;8.32;;;;;;;-1.70;73.35;96923.19;5030625;28;20053;-41
2021/03/06 05:33:58;;;;;;;13.88;8.35;;;;;;;-1.58;72.62;96923.22;5031473;28;20061;-41
2021/03/06 05:36:25;;;;;;;13.80;8.50;;;;;;;-1.75;73.03;96920.44;5031341;28;20068;-41
2021/03/06 05:38:51;;;;;;;12.60;8.20;;;;;;;-2.11;73.98;96919.56;5030946;28;20132;-42
2021/03/06 05:41:19;;;;;;;12.48;8.75;;;;;;;-1.73;72.00;96907.72;5030608;28;20185;-46
2021/03/06 05:43:45;;;;;;;11.70;7.97;;;;;;;-1.35;70.93;96912.59;5031264;28;20136;-42
2021/03/06 05:46:14;;;;;;;11.35;7.50;;;;;;;-1.49;70.93;96913.88;5031025;28;20073;-47
2021/03/06 05:48:41;;;;;;;13.02;7.95;;;;;;;-1.93;73.21;96900.09;5031289;28;20104;-44
2021/03/06 05:51:10;;;;;;;13.60;7.78;;;;;;;-1.81;72.01;96921.34;5030303;28;20056;-44
2021/03/06 05:53:39;;;;;;;12.23;7.38;;;;;;;-1.95;73.51;96913.63;5030936;28;20049;-46
2021/03/06 05:56:08;;;;;;;12.23;7.20;;;;;;;-1.73;72.90;96911.19;5031257;28;20699;-47
2021/03/06 05:58:36;;;;;;;13.85;8.25;;;;;;;-1.84;73.35;96909.34;5031014;28;20053;-44
2021/03/06 06:01:03;;;;;;;14.85;7.90;;;;;;;-1.84;73.40;96916.50;5029950;28;20080;-42
2021/03/06 06:03:30;;;;;;;14.50;7.88;;;;;;;-1.93;73.97;96926.63;5030939;28;20057;-43
2021/03/06 06:05:57;;;;;;;12.73;7.72;;;;;;;-1.92;73.75;96922.94;5046200;28;20529;-42
2021/03/06 06:08:25;;;;;;;14.18;8.35;;;;;;;-2.07;73.70;96923.38;5048675;28;20076;-44
2021/03/06 06:10:52;;;;;;;11.75;7.85;;;;;;;-2.22;75.13;96923.00;5031035;28;20140;-42
2021/03/06 06:13:18;;;;;;;11.45;6.97;;;;;;;-2.41;74.35;96915.09;5031223;28;20061;-44
2021/03/06 06:15:45;;;;;;;12.77;7.75;;;;;;;-2.13;74.65;96922.44;5030063;28;20140;-47
2021/03/06 06:18:13;;;;;;;11.77;7.28;;;;;;;-1.99;74.20;96924.88;5039892;28;20053;-44
2021/03/06 06:20:40;;;;;;;14.75;7.72;;;;;;;-2.21;74.17;96930.72;5048425;28;20049;-46
2021/03/06 06:23:10;;;;;;;11.63;7.75;;;;;;;-2.10;73.57;96918.53;5049980;28;20056;-43
2021/03/06 06:25:42;;;;;;;11.02;7.28;;;;;;;-2.37;75.00;96918.13;5036178;28;20053;-44
2021/03/06 06:28:18;;;;;;;11.18;7.53;;;;;;;-2.01;73.28;96929.63;5030405;28;20091;-43
2021/03/06 06:31:07;;;;;;;12.73;7.13;;;;;;;-2.25;74.86;96924.25;5030611;28;20087;-43
2021/03/06 06:33:33;;;;;;;11.75;7.07;;;;;;;-2.24;73.57;96917.09;5030558;28;20064;-48
2021/03/06 06:36:00;;;;;;;11.65;7.32;;;;;;;-1.67;72.24;96928.84;5030675;28;20454;-43
2021/03/06 06:38:40;;;;;;;13.00;7.45;;;;;;;-1.99;73.64;96938.94;5030417;28;20491;-42
2021/03/06 06:41:07;;;;;;;10.65;6.82;;;;;;;-1.91;72.92;96943.13;5029679;28;20510;-44
2021/03/06 06:43:33;;;;;;;11.55;6.70;;;;;;;-1.60;71.81;96946.50;5030386;28;20077;-43
2021/03/06 06:46:00;;;;;;;10.52;7.00;;;;;;;-1.88;72.37;96948.00;5030308;28;20046;-44
2021/03/06 06:48:26;;;;;;;12.80;8.15;;;;;;;-2.08;73.50;96948.28;5030795;28;20061;-45
2021/03/06 06:51:06;;;;;;;14.02;7.63;;;;;;;-2.15;73.24;96955.50;5030106;28;20049;-43
2021/03/06 06:53:32;;;;;;;11.55;6.90;;;;;;;-1.74;71.20;96967.16;5039417;28;20072;-44
2021/03/06 06:55:59;;;;;;;11.20;7.07;;;;;;;-1.62;71.29;96952.06;5042127;28;20395;-45
2021/03/06 06:58:42;;;;;;;12.38;6.75;;;;;;;-1.80;71.35;96958.25;5030474;28;20150;-43
2021/03/06 07:01:28;;;;;;;10.80;6.40;;;;;;;-1.79;72.11;96954.56;5029358;28;20088;-43
2021/03/06 07:04:02;;;;;;;10.30;6.95;;;;;;;-1.92;72.49;96954.75;5036590;28;20045;-44
2021/03/06 07:06:29;;;;;;;10.10;6.90;;;;;;;-1.44;70.30;96940.50;5031408;28;20075;-46
2021/03/06 07:09:08;;;;;;;12.10;6.97;;;;;;;-1.63;70.41;96954.94;5029832;28;20063;-44
2021/03/06 07:11:35;;;;;;;10.15;6.22;;;;;;;-1.24;69.37;96959.56;5037916;28;20049;-47
2021/03/06 07:14:02;;;;;;;12.27;7.93;;;;;;;-1.05;69.34;96959.44;5046304;28;20056;-44
2021/03/06 07:16:57;;;;;;;10.63;6.05;;;;;;;-1.31;68.13;96958.06;5050211;28;20119;-43
2021/03/06 07:19:26;;;;;;;11.35;6.28;;;;;;;-1.37;69.16;96957.13;5033369;28;20045;-43
2021/03/06 07:21:53;;;;;;;9.57;6.05;;;;;;;-1.27;67.96;96954.72;5030424;28;20049;-44
2021/03/06 07:24:19;;;;;;;10.45;5.40;;;;;;;-1.52;67.36;96956.81;5030047;28;20460;-46
2021/03/06 07:26:51;;;;;;;10.32;5.65;;;;;;;-1.58;67.99;96966.47;5042131;28;20129;-46
2021/03/06 07:29:20;;;;;;;11.63;5.97;;;;;;;-1.42;67.86;96970.31;5031329;28;20049;-47
2021/03/06 07:31:50;;;;;;;9.95;6.05;;;;;;;-1.65;67.28;96953.31;5037532;28;20333;-46
2021/03/06 07:34:22;;;;;;;9.25;5.30;;;;;;;-1.68;67.69;96964.38;5040307;28;20122;-46
2021/03/06 07:36:49;;;;;;;9.00;5.40;;;;;;;-1.79;66.97;96964.34;5049985;28;20053;-47
2021/03/06 07:39:17;;;;;;;9.45;5.32;;;;;;;-1.81;67.07;96958.50;5033547;28;20132;-45
2021/03/06 07:41:54;;;;;;;8.35;4.90;;;;;;;-1.53;66.87;96957.81;5033176;28;20053;-45
2021/03/06 07:44:25;;;;;;;8.95;5.57;;;;;;;-0.83;65.10;96967.59;5033557;28;20053;-47
2021/03/06 07:46:54;;;;;;;7.70;5.10;;;;;;;-0.77;63.99;96964.81;5033549;28;20061;-48
2021/03/06 07:49:25;;;;;;;8.55;5.07;;;;;;;-1.07;64.90;96951.72;5037415;28;20101;-43
2021/03/06 07:51:56;;;;;;;7.90;4.97;;;;;;;-1.27;64.96;96962.69;5042220;28;20052;-46
2021/03/06 07:54:24;;;;;;;7.50;5.00;;;;;;;-0.82;63.32;96978.00;5053538;28;20314;-49
2021/03/06 07:56:51;;;;;;;7.88;4.60;;;;;;;-0.68;63.07;96975.06;5036978;28;20131;-42
2021/03/06 07:59:57;;;;;;;8.95;4.65;;;;;;;-0.69;62.83;96976.91;5033533;28;20498;-42
2021/03/06 08:02:37;;;;;;;11.32;5.00;;;;;;;-0.97;63.96;96925.34;5035912;28;20061;-42
2021/03/06 08:05:42;;;;;;;7.53;4.88;;;;;;;-0.47;62.46;96971.78;5050128;28;20053;-44
2021/03/06 08:08:09;;;;;;;7.57;4.50;;;;;;;-0.73;62.90;96973.94;5048971;28;20132;-47
2021/03/06 08:11:12;;;;;;;8.15;4.63;;;;;;;-0.49;62.81;96974.69;5040521;28;20536;-44
2021/03/06 08:13:59;;;;;;;10.00;4.75;;;;;;;-0.59;61.60;96977.13;5037575;28;20041;-47
2021/03/06 08:16:28;;;;;;;11.02;4.45;;;;;;;-0.80;61.07;96983.88;5052417;28;20152;-48
2021/03/06 08:18:59;;;;;;;6.47;4.32;;;;;;;-0.81;61.87;96979.63;5034282;28;20079;-45
2021/03/06 08:21:45;;;;;;;7.57;4.55;;;;;;;-0.51;62.54;96981.28;5040928;28;20055;-47
2021/03/06 08:24:11;;;;;;;6.03;4.10;;;;;;;-0.59;61.51;96986.94;5045341;28;20160;-45
2021/03/06 08:26:41;;;;;;;5.55;3.70;;;;;;;-0.06;59.08;96975.22;5048900;28;20107;-44
2021/03/06 08:29:23;;;;;;;8.88;3.80;;;;;;;-0.08;59.71;96990.59;5035314;28;20065;-46
2021/03/06 08:32:13;;;;;;;7.40;4.05;;;;;;;-0.20;59.80;96990.66;5044523;28;20049;-47
2021/03/06 08:34:48;;;;;;;10.02;6.78;;;;;;;-0.31;60.61;96984.34;5045703;28;20045;-45
2021/03/06 08:37:21;;;;;;;7.05;4.15;;;;;;;-0.31;59.40;96981.66;5045387;28;20160;-48
2021/03/06 08:39:54;;;;;;;7.00;3.55;;;;;;;-0.30;59.50;96982.47;5044004;28;20136;-45
2021/03/06 08:42:23;;;;;;;6.63;3.88;;;;;;;-0.45;59.39;96983.00;5046708;28;20417;-44
2021/03/06 08:44:51;;;;;;;5.75;3.53;;;;;;;-0.26;59.01;96989.75;5045118;28;20103;-42
2021/03/06 08:47:29;;;;;;;5.75;3.65;;;;;;;0.07;58.83;96984.78;5043975;28;20143;-44
2021/03/06 08:49:58;;;;;;;7.00;3.83;;;;;;;0.40;57.67;96984.00;5048603;28;20128;-45
2021/03/06 08:52:27;;;;;;;7.03;3.92;;;;;;;0.32;56.38;96995.03;5050616;28;20097;-46
2021/03/06 08:55:10;;;;;;;6.57;3.40;;;;;;;0.17;58.36;96984.94;5045247;28;20048;-45
2021/03/06 08:57:38;;;;;;;5.78;3.67;;;;;;;0.70;57.98;96981.81;5045942;28;20045;-46
2021/03/06 09:00:29;;;;;;;7.00;3.15;;;;;;;0.85;59.26;96973.25;5045322;28;20053;-45
2021/03/06 09:02:56;;;;;;;7.03;3.50;;;;;;;1.03;55.66;96982.00;5040143;28;20079;-44
2021/03/06 09:05:27;;;;;;;5.72;3.35;;;;;;;0.87;55.21;96971.13;5045303;28;20057;-44
2021/03/06 09:07:55;;;;;;;5.45;3.67;;;;;;;0.66;55.59;96977.22;5045157;28;20136;-45
2021/03/06 09:10:33;;;;;;;6.47;4.00;;;;;;;0.60;55.45;96983.50;5043914;28;20134;-45
2021/03/06 09:13:15;;;;;;;6.80;3.67;;;;;;;0.73;54.33;96982.38;5045412;28;20090;-48
2021/03/06 09:15:57;;;;;;;5.97;3.30;;;;;;;0.55;53.30;96978.09;5044880;28;20072;-45
2021/03/06 09:18:29;;;;;;;6.38;3.70;;;;;;;0.62;53.47;96990.22;5043027;28;20144;-47
2021/03/06 09:20:57;;;;;;;5.53;3.65;;;;;;;0.72;53.90;96983.44;5045452;28;20052;-43
2021/03/06 09:23:34;;;;;;;7.18;3.78;;;;;;;0.68;53.67;96978.59;5046544;28;20091;-46
2021/03/06 09:26:03;;;;;;;5.60;3.50;;;;;;;0.61;52.58;96972.59;5051666;28;20466;-44
2021/03/06 09:28:32;;;;;;;6.55;3.55;;;;;;;0.73;53.02;96974.38;5046432;28;20592;-44
2021/03/06 09:31:01;;;;;;;5.75;3.65;;;;;;;0.95;54.78;96967.25;5034610;28;20187;-47
2021/03/06 09:33:33;;;;;;;6.18;4.18;;;;;;;1.19;53.46;96970.50;5041681;28;20053;-45
2021/03/06 09:36:06;;;;;;;6.63;4.28;;;;;;;1.22;53.40;96977.22;5043301;28;20506;-47
2021/03/06 09:38:54;;;;;;;7.60;3.92;;;;;;;1.16;52.25;96976.31;5032946;28;20414;-46
2021/03/06 09:41:28;;;;;;;6.35;4.25;;;;;;;0.76;53.98;96971.25;5038918;28;21804;-47
2021/03/06 09:43:56;;;;;;;6.82;4.47;;;;;;;0.93;53.02;96969.34;5044494;28;20158;-42
2021/03/06 09:46:34;;;;;;;6.65;4.22;;;;;;;0.88;53.42;96980.75;5045383;28;20084;-46
2021/03/06 09:49:09;;;;;;;6.18;3.90;;;;;;;0.85;53.08;96962.59;5038641;28;20049;-48
2021/03/06 09:51:55;;;;;;;6.78;4.28;;;;;;;1.20;53.22;96979.28;5030735;28;20132;-46
2021/03/06 09:54:25;;;;;;;9.07;4.25;;;;;;;1.22;53.06;96971.88;5043432;28;20071;-43
2021/03/06 09:57:01;;;;;;;7.03;4.20;;;;;;;1.33;52.88;96974.44;5042446;28;21666;-45
2021/03/06 09:59:29;;;;;;;9.15;4.60;;;;;;;1.56;52.84;96972.56;5042786;28;20106;-47
2021/03/06 10:02:05;;;;;;;6.57;3.92;;;;;;;1.54;53.47;96985.34;5038434;28;20053;-47
2021/03/06 10:04:32;;;;;;;7.78;4.53;;;;;;;1.51;53.00;96973.31;5044794;28;20075;-42
2021/03/06 10:06:59;;;;;;;6.93;5.05;;;;;;;1.35;52.83;96972.31;5045925;28;20103;-42
2021/03/06 10:09:32;;;;;;;6.68;4.40;;;;;;;1.68;53.12;96972.44;5036673;28;20459;-42
2021/03/06 10:12:05;;;;;;;6.40;4.33;;;;;;;1.44;52.98;96974.56;5045662;28;20942;-43
2021/03/06 10:14:32;;;;;;;8.85;5.30;;;;;;;1.56;53.31;96989.38;5041943;28;20379;-43
2021/03/06 10:17:01;;;;;;;7.85;4.60;;;;;;;1.93;53.71;96977.25;5046733;28;20049;-47
2021/03/06 10:19:30;;;;;;;7.57;4.78;;;;;;;2.06;53.43;96974.19;5044404;28;20056;-45
2021/03/06 10:21:58;;;;;;;10.35;5.75;;;;;;;1.91;53.98;96968.69;5040527;28;20064;-47
2021/03/06 10:24:25;;;;;;;8.52;4.75;;;;;;;2.21;52.24;96973.50;5043177;28;20455;-46
2021/03/06 10:27:00;;;;;;;7.55;4.72;;;;;;;2.08;51.79;96967.53;5045854;28;20079;-48
2021/03/06 10:29:27;;;;;;;6.85;4.55;;;;;;;2.03;53.23;96972.00;5047352;28;20136;-45
2021/03/06 10:31:56;;;;;;;8.02;4.93;;;;;;;1.90;52.77;96959.88;5047476;28;20045;-42
2021/03/06 10:34:27;;;;;;;7.40;4.70;;;;;;;2.00;52.89;96967.16;5039139;28;20325;-41
2021/03/06 10:37:19;;;;;;;6.95;4.47;;;;;;;2.45;51.70;96960.66;5050137;28;20110;-42
2021/03/06 10:39:51;;;;;;;8.35;4.95;;;;;;;2.70;52.82;96952.03;5042536;28;20053;-42
2021/03/06 10:42:18;;;;;;;9.73;5.63;;;;;;;2.61;54.61;96961.56;5032975;28;20053;-44
2021/03/06 10:44:45;;;;;;;7.75;4.78;;;;;;;2.35;55.15;96956.03;5030452;28;20418;-46
2021/03/06 10:47:11;;;;;;;7.90;4.75;;;;;;;2.46;53.70;96955.03;5038077;28;20128;-43
2021/03/06 10:49:41;;;;;;;9.48;4.35;;;;;;;2.44;54.00;96957.16;5049592;28;20045;-44
2021/03/06 10:52:23;;;;;;;9.82;6.38;;;;;;;2.38;55.29;96947.50;5041944;28;20077;-47
2021/03/06 10:54:51;;;;;;;9.65;4.72;;;;;;;2.72;53.06;96934.66;5046360;28;20414;-44
2021/03/06 10:57:18;;;;;;;7.45;5.07;;;;;;;3.05;53.16;96956.78;5049702;28;20091;-43
2021/03/06 10:59:45;;;;;;;8.77;5.00;;;;;;;2.55;52.11;96905.41;5044102;28;20130;-44
2021/03/06 11:02:32;;;;;;;8.32;4.70;;;;;;;2.74;52.95;96950.44;5044928;28;20125;-43
2021/03/06 11:05:20;;;;;;;6.70;4.63;;;;;;;2.55;53.28;96942.81;5051069;28;20367;-44
2021/03/06 11:07:47;;;;;;;6.85;4.55;;;;;;;2.68;55.25;96949.59;5044294;28;20128;-43
2021/03/06 11:10:16;;;;;;;8.80;5.05;;;;;;;2.99;53.98;96949.78;5029544;28;20053;-44
2021/03/06 11:12:56;;;;;;;7.55;5.07;;;;;;;3.15;53.52;96956.03;5030628;28;20057;-45
2021/03/06 11:15:28;;;;;;;6.28;4.57;;;;;;;3.21;52.38;96955.00;5034409;28;20061;-46
2021/03/06 11:17:56;;;;;;;6.50;4.38;;;;;;;3.70;51.92;96954.66;5034059;28;20446;-45
2021/03/06 11:20:28;;;;;;;7.72;4.47;;;;;;;4.10;51.84;96961.19;5034613;28;20077;-43
2021/03/06 11:22:55;;;;;;;8.27;5.38;;;;;;;3.90;51.10;96957.41;5034007;28;20141;-41
2021/03/06 11:25:23;;;;;;;8.85;4.78;;;;;;;4.54;50.38;96947.28;5033963;28;20049;-41
2021/03/06 11:27:59;;;;;;;6.60;4.70;;;;;;;5.93;46.64;96943.97;5034119;28;20518;-43
2021/03/06 11:30:28;;;;;;;5.85;4.47;;;;;;;10.22;35.00;96940.72;5034480;28;20132;-41
2021/03/06 11:32:56;;;;;;;6.03;4.55;;;;;;;11.29;31.41;96940.03;5033994;28;20049;-42
2021/03/06 11:35:24;;;;;;;7.82;4.90;;;;;;;9.09;34.64;96928.69;5033814;28;20072;-46
2021/03/06 11:37:51;;;;;;;5.90;4.80;;;;;;;10.70;31.99;96933.97;5033767;28;20058;-47
2021/03/06 11:40:21;;;;;;;6.15;4.50;;;;;;;11.23;31.26;96933.94;5032919;28;20045;-43
2021/03/06 11:42:48;;;;;;;7.38;4.63;;;;;;;8.57;36.04;96927.94;5033464;28;20057;-46
2021/03/06 11:45:17;;;;;;;7.40;4.50;;;;;;;7.93;36.95;96921.34;5033868;28;20111;-41
2021/03/06 11:47:45;;;;;;;7.07;4.72;;;;;;;11.22;31.81;96923.44;5033492;28;20045;-45